sensor_id;sensor_type;location;lat;lon;timestamp;P1;durP1;ratioP1;P2;durP2;ratioP2
54328;SDS011;40710;51.120;13.136;2023-04-25T00:01:14;6.50;;;6.50;;
54328;SDS011;40710;51.120;13.136;2023-04-25T00:03:39;6.06;;;6.06;;
54328;SDS011;40710;51.120;13.136;2023-04-25T00:06:04;5.84;;;5.84;;
54328;SDS011;40710;51.120;13.136;2023-04-25T00:08:29;5.75;;;5.75;;
54328;SDS011;40710;51.120;13.136;2023-04-25T00:10:54;6.25;;;6.25;;
54328;SDS011;40710;51.120;13.136;2023-04-25T00:13:19;6.52;;;6.52;;
54328;SDS011;40710;51.120;13.136;2023-04-25T00:15:44;6.57;;;6.57;;
54328;SDS011;40710;51.120;13.136;2023-04-25T00:18:12;6.89;;;6.89;;
54328;SDS011;40710;51.120;13.136;2023-04-25T00:20:36;7.10;;;7.10;;
54328;SDS011;40710;51.120;13.136;2023-04-25T00:23:01;7.03;;;7.03;;
54328;SDS011;40710;51.120;13.136;2023-04-25T00:25:26;6.99;;;6.99;;
54328;SDS011;40710;51.120;13.136;2023-04-25T00:27:50;7.69;;;7.62;;
54328;SDS011;40710;51.120;13.136;2023-04-25T00:30:15;7.39;;;7.39;;
54328;SDS011;40710;51.120;13.136;2023-04-25T00:32:39;7.24;;;7.24;;
54328;SDS011;40710;51.120;13.136;2023-04-25T00:35:04;7.57;;;7.57;;
54328;SDS011;40710;51.120;13.136;2023-04-25T00:37:29;7.52;;;7.51;;
54328;SDS011;40710;51.120;13.136;2023-04-25T00:39:54;7.88;;;7.86;;
54328;SDS011;40710;51.120;13.136;2023-04-25T00:42:20;7.69;;;7.68;;
54328;SDS011;40710;51.120;13.136;2023-04-25T00:44:45;7.52;;;7.51;;
54328;SDS011;40710;51.120;13.136;2023-04-25T00:47:10;8.23;;;8.23;;
54328;SDS011;40710;51.120;13.136;2023-04-25T00:49:35;8.68;;;8.48;;
54328;SDS011;40710;51.120;13.136;2023-04-25T00:51:59;8.11;;;8.11;;
54328;SDS011;40710;51.120;13.136;2023-04-25T00:54:24;8.27;;;8.27;;
54328;SDS011;40710;51.120;13.136;2023-04-25T00:56:49;8.96;;;8.96;;
54328;SDS011;40710;51.120;13.136;2023-04-25T00:59:14;8.63;;;8.63;;
54328;SDS011;40710;51.120;13.136;2023-04-25T01:01:39;8.32;;;8.31;;
54328;SDS011;40710;51.120;13.136;2023-04-25T01:04:05;8.48;;;8.45;;
54328;SDS011;40710;51.120;13.136;2023-04-25T01:06:30;9.26;;;8.92;;
54328;SDS011;40710;51.120;13.136;2023-04-25T01:08:56;8.92;;;8.92;;
54328;SDS011;40710;51.120;13.136;2023-04-25T01:11:21;8.54;;;8.54;;
54328;SDS011;40710;51.120;13.136;2023-04-25T01:13:45;8.96;;;8.96;;
54328;SDS011;40710;51.120;13.136;2023-04-25T01:16:10;8.95;;;8.94;;
54328;SDS011;40710;51.120;13.136;2023-04-25T01:18:34;9.10;;;9.01;;
54328;SDS011;40710;51.120;13.136;2023-04-25T01:21:06;9.15;;;8.93;;
54328;SDS011;40710;51.120;13.136;2023-04-25T01:23:32;9.33;;;9.12;;
54328;SDS011;40710;51.120;13.136;2023-04-25T01:25:57;9.75;;;9.41;;
54328;SDS011;40710;51.120;13.136;2023-04-25T01:28:22;9.30;;;9.25;;
54328;SDS011;40710;51.120;13.136;2023-04-25T01:30:47;9.37;;;9.35;;
54328;SDS011;40710;51.120;13.136;2023-04-25T01:33:12;9.47;;;9.45;;
54328;SDS011;40710;51.120;13.136;2023-04-25T01:35:38;9.00;;;9.00;;
54328;SDS011;40710;51.120;13.136;2023-04-25T01:38:02;9.56;;;9.56;;
54328;SDS011;40710;51.120;13.136;2023-04-25T01:40:27;9.18;;;9.18;;
54328;SDS011;40710;51.120;13.136;2023-04-25T01:42:52;9.53;;;9.30;;
54328;SDS011;40710;51.120;13.136;2023-04-25T01:45:17;9.63;;;9.53;;
54328;SDS011;40710;51.120;13.136;2023-04-25T01:47:41;9.64;;;9.64;;
54328;SDS011;40710;51.120;13.136;2023-04-25T01:50:07;9.55;;;9.55;;
54328;SDS011;40710;51.120;13.136;2023-04-25T01:52:33;9.87;;;9.87;;
54328;SDS011;40710;51.120;13.136;2023-04-25T01:54:57;9.12;;;9.12;;
54328;SDS011;40710;51.120;13.136;2023-04-25T01:57:25;9.29;;;9.28;;
54328;SDS011;40710;51.120;13.136;2023-04-25T01:59:49;10.15;;;9.99;;
54328;SDS011;40710;51.120;13.136;2023-04-25T02:02:14;9.54;;;9.54;;
54328;SDS011;40710;51.120;13.136;2023-04-25T02:04:38;9.61;;;9.58;;
54328;SDS011;40710;51.120;13.136;2023-04-25T02:07:03;9.57;;;9.57;;
54328;SDS011;40710;51.120;13.136;2023-04-25T02:09:28;9.32;;;9.31;;
54328;SDS011;40710;51.120;13.136;2023-04-25T02:11:52;9.56;;;9.56;;
54328;SDS011;40710;51.120;13.136;2023-04-25T02:14:17;9.58;;;9.55;;
54328;SDS011;40710;51.120;13.136;2023-04-25T02:16:41;10.24;;;10.11;;
54328;SDS011;40710;51.120;13.136;2023-04-25T02:19:07;9.73;;;9.73;;
54328;SDS011;40710;51.120;13.136;2023-04-25T02:21:32;9.70;;;9.70;;
54328;SDS011;40710;51.120;13.136;2023-04-25T02:23:59;9.49;;;9.49;;
54328;SDS011;40710;51.120;13.136;2023-04-25T02:26:24;10.61;;;10.58;;
54328;SDS011;40710;51.120;13.136;2023-04-25T02:28:49;12.06;;;11.93;;
54328;SDS011;40710;51.120;13.136;2023-04-25T02:31:14;11.53;;;11.49;;
54328;SDS011;40710;51.120;13.136;2023-04-25T02:33:39;10.54;;;10.30;;
54328;SDS011;40710;51.120;13.136;2023-04-25T02:36:03;9.79;;;9.78;;
54328;SDS011;40710;51.120;13.136;2023-04-25T02:38:28;9.49;;;9.49;;
54328;SDS011;40710;51.120;13.136;2023-04-25T02:40:53;9.72;;;9.70;;
54328;SDS011;40710;51.120;13.136;2023-04-25T02:43:17;9.92;;;9.91;;
54328;SDS011;40710;51.120;13.136;2023-04-25T02:45:42;9.83;;;9.83;;
54328;SDS011;40710;51.120;13.136;2023-04-25T02:48:06;10.32;;;10.30;;
54328;SDS011;40710;51.120;13.136;2023-04-25T02:50:31;9.97;;;9.95;;
54328;SDS011;40710;51.120;13.136;2023-04-25T02:52:55;9.93;;;9.93;;
54328;SDS011;40710;51.120;13.136;2023-04-25T02:55:20;10.27;;;10.26;;
54328;SDS011;40710;51.120;13.136;2023-04-25T02:57:44;10.48;;;10.39;;
54328;SDS011;40710;51.120;13.136;2023-04-25T03:00:09;9.87;;;9.84;;
54328;SDS011;40710;51.120;13.136;2023-04-25T03:02:35;9.34;;;9.34;;
54328;SDS011;40710;51.120;13.136;2023-04-25T03:05:00;10.00;;;9.82;;
54328;SDS011;40710;51.120;13.136;2023-04-25T03:07:24;10.44;;;10.35;;
54328;SDS011;40710;51.120;13.136;2023-04-25T03:09:49;9.74;;;9.73;;
54328;SDS011;40710;51.120;13.136;2023-04-25T03:12:13;9.93;;;9.88;;
54328;SDS011;40710;51.120;13.136;2023-04-25T03:14:38;30.22;;;29.47;;
54328;SDS011;40710;51.120;13.136;2023-04-25T03:17:02;36.59;;;35.17;;
54328;SDS011;40710;51.120;13.136;2023-04-25T03:19:28;17.48;;;17.05;;
54328;SDS011;40710;51.120;13.136;2023-04-25T03:21:52;11.03;;;10.94;;
54328;SDS011;40710;51.120;13.136;2023-04-25T03:24:17;9.89;;;9.89;;
54328;SDS011;40710;51.120;13.136;2023-04-25T03:26:42;10.43;;;10.39;;
54328;SDS011;40710;51.120;13.136;2023-04-25T03:29:06;10.25;;;10.24;;
54328;SDS011;40710;51.120;13.136;2023-04-25T03:31:31;10.20;;;10.20;;
54328;SDS011;40710;51.120;13.136;2023-04-25T03:33:55;10.54;;;10.50;;
54328;SDS011;40710;51.120;13.136;2023-04-25T03:36:20;9.79;;;9.79;;
54328;SDS011;40710;51.120;13.136;2023-04-25T03:38:44;10.02;;;10.02;;
54328;SDS011;40710;51.120;13.136;2023-04-25T03:41:09;10.41;;;10.34;;
54328;SDS011;40710;51.120;13.136;2023-04-25T03:43:34;10.28;;;10.20;;
54328;SDS011;40710;51.120;13.136;2023-04-25T03:45:58;10.18;;;10.16;;
54328;SDS011;40710;51.120;13.136;2023-04-25T03:48:25;10.20;;;10.20;;
54328;SDS011;40710;51.120;13.136;2023-04-25T03:50:50;9.89;;;9.89;;
54328;SDS011;40710;51.120;13.136;2023-04-25T03:53:14;10.51;;;10.36;;
54328;SDS011;40710;51.120;13.136;2023-04-25T03:55:39;10.28;;;10.18;;
54328;SDS011;40710;51.120;13.136;2023-04-25T03:58:04;9.48;;;9.48;;
54328;SDS011;40710;51.120;13.136;2023-04-25T04:00:29;9.68;;;9.68;;
54328;SDS011;40710;51.120;13.136;2023-04-25T04:02:53;11.94;;;11.83;;
54328;SDS011;40710;51.120;13.136;2023-04-25T04:05:18;10.12;;;10.11;;
54328;SDS011;40710;51.120;13.136;2023-04-25T04:07:43;9.95;;;9.95;;
54328;SDS011;40710;51.120;13.136;2023-04-25T04:10:08;10.36;;;10.34;;
54328;SDS011;40710;51.120;13.136;2023-04-25T04:12:33;11.78;;;11.64;;
54328;SDS011;40710;51.120;13.136;2023-04-25T04:14:57;11.51;;;11.51;;
54328;SDS011;40710;51.120;13.136;2023-04-25T04:17:22;10.89;;;10.89;;
54328;SDS011;40710;51.120;13.136;2023-04-25T04:19:46;10.34;;;10.34;;
54328;SDS011;40710;51.120;13.136;2023-04-25T04:22:11;10.18;;;10.18;;
54328;SDS011;40710;51.120;13.136;2023-04-25T04:24:35;10.27;;;10.27;;
54328;SDS011;40710;51.120;13.136;2023-04-25T04:27:00;10.10;;;10.10;;
54328;SDS011;40710;51.120;13.136;2023-04-25T04:29:25;10.32;;;10.32;;
54328;SDS011;40710;51.120;13.136;2023-04-25T04:31:50;10.33;;;10.33;;
54328;SDS011;40710;51.120;13.136;2023-04-25T04:34:16;10.20;;;10.20;;
54328;SDS011;40710;51.120;13.136;2023-04-25T04:36:42;10.65;;;10.61;;
54328;SDS011;40710;51.120;13.136;2023-04-25T04:39:07;10.05;;;10.05;;
54328;SDS011;40710;51.120;13.136;2023-04-25T04:41:33;10.23;;;10.23;;
54328;SDS011;40710;51.120;13.136;2023-04-25T04:43:57;10.02;;;10.01;;
54328;SDS011;40710;51.120;13.136;2023-04-25T04:46:22;10.52;;;10.51;;
54328;SDS011;40710;51.120;13.136;2023-04-25T04:48:48;10.59;;;10.59;;
54328;SDS011;40710;51.120;13.136;2023-04-25T04:51:13;9.94;;;9.93;;
54328;SDS011;40710;51.120;13.136;2023-04-25T04:53:37;10.06;;;10.05;;
54328;SDS011;40710;51.120;13.136;2023-04-25T04:56:02;10.09;;;10.09;;
54328;SDS011;40710;51.120;13.136;2023-04-25T04:58:26;9.52;;;9.51;;
54328;SDS011;40710;51.120;13.136;2023-04-25T05:00:53;9.91;;;9.87;;
54328;SDS011;40710;51.120;13.136;2023-04-25T05:03:18;9.47;;;9.47;;
54328;SDS011;40710;51.120;13.136;2023-04-25T05:05:42;9.76;;;9.76;;
54328;SDS011;40710;51.120;13.136;2023-04-25T05:08:07;9.64;;;9.64;;
54328;SDS011;40710;51.120;13.136;2023-04-25T05:10:31;9.66;;;9.66;;
54328;SDS011;40710;51.120;13.136;2023-04-25T05:12:56;9.97;;;9.95;;
54328;SDS011;40710;51.120;13.136;2023-04-25T05:15:21;10.19;;;10.18;;
54328;SDS011;40710;51.120;13.136;2023-04-25T05:17:45;10.63;;;10.50;;
54328;SDS011;40710;51.120;13.136;2023-04-25T05:20:10;10.69;;;10.60;;
54328;SDS011;40710;51.120;13.136;2023-04-25T05:22:35;9.95;;;9.95;;
54328;SDS011;40710;51.120;13.136;2023-04-25T05:25:00;9.94;;;9.84;;
54328;SDS011;40710;51.120;13.136;2023-04-25T05:27:24;10.23;;;10.21;;
54328;SDS011;40710;51.120;13.136;2023-04-25T05:29:49;10.72;;;10.60;;
54328;SDS011;40710;51.120;13.136;2023-04-25T05:32:13;10.52;;;10.52;;
54328;SDS011;40710;51.120;13.136;2023-04-25T05:34:38;10.19;;;10.18;;
54328;SDS011;40710;51.120;13.136;2023-04-25T05:37:02;10.99;;;10.91;;
54328;SDS011;40710;51.120;13.136;2023-04-25T05:39:27;10.35;;;10.35;;
54328;SDS011;40710;51.120;13.136;2023-04-25T05:41:51;10.56;;;10.56;;
54328;SDS011;40710;51.120;13.136;2023-04-25T05:44:16;10.83;;;10.83;;
54328;SDS011;40710;51.120;13.136;2023-04-25T05:46:40;10.29;;;10.29;;
54328;SDS011;40710;51.120;13.136;2023-04-25T05:49:05;10.74;;;10.74;;
54328;SDS011;40710;51.120;13.136;2023-04-25T05:51:30;10.21;;;10.19;;
54328;SDS011;40710;51.120;13.136;2023-04-25T05:53:55;10.90;;;10.79;;
54328;SDS011;40710;51.120;13.136;2023-04-25T05:56:20;10.81;;;10.81;;
54328;SDS011;40710;51.120;13.136;2023-04-25T05:58:44;10.41;;;10.38;;
54328;SDS011;40710;51.120;13.136;2023-04-25T06:01:09;10.61;;;10.55;;
54328;SDS011;40710;51.120;13.136;2023-04-25T06:03:34;10.66;;;10.63;;
54328;SDS011;40710;51.120;13.136;2023-04-25T06:05:58;10.75;;;10.71;;
54328;SDS011;40710;51.120;13.136;2023-04-25T06:08:23;10.52;;;10.48;;
54328;SDS011;40710;51.120;13.136;2023-04-25T06:10:47;10.65;;;10.61;;
54328;SDS011;40710;51.120;13.136;2023-04-25T06:13:12;9.85;;;9.77;;
54328;SDS011;40710;51.120;13.136;2023-04-25T06:15:37;10.56;;;10.56;;
54328;SDS011;40710;51.120;13.136;2023-04-25T06:18:01;10.87;;;10.74;;
54328;SDS011;40710;51.120;13.136;2023-04-25T06:20:26;10.49;;;10.37;;
54328;SDS011;40710;51.120;13.136;2023-04-25T06:22:51;10.28;;;10.21;;
54328;SDS011;40710;51.120;13.136;2023-04-25T06:25:16;10.46;;;10.45;;
54328;SDS011;40710;51.120;13.136;2023-04-25T06:27:41;10.83;;;10.73;;
54328;SDS011;40710;51.120;13.136;2023-04-25T06:30:06;10.68;;;10.59;;
54328;SDS011;40710;51.120;13.136;2023-04-25T06:32:30;9.73;;;9.69;;
54328;SDS011;40710;51.120;13.136;2023-04-25T06:34:55;9.83;;;9.83;;
54328;SDS011;40710;51.120;13.136;2023-04-25T06:37:20;10.38;;;10.38;;
54328;SDS011;40710;51.120;13.136;2023-04-25T06:39:44;10.48;;;10.48;;
54328;SDS011;40710;51.120;13.136;2023-04-25T06:42:09;9.92;;;9.91;;
54328;SDS011;40710;51.120;13.136;2023-04-25T06:44:34;9.43;;;9.43;;
54328;SDS011;40710;51.120;13.136;2023-04-25T06:46:58;9.50;;;9.50;;
54328;SDS011;40710;51.120;13.136;2023-04-25T06:49:23;9.97;;;9.91;;
54328;SDS011;40710;51.120;13.136;2023-04-25T06:51:47;10.36;;;10.29;;
54328;SDS011;40710;51.120;13.136;2023-04-25T06:54:12;9.78;;;9.76;;
54328;SDS011;40710;51.120;13.136;2023-04-25T06:56:36;9.98;;;9.98;;
54328;SDS011;40710;51.120;13.136;2023-04-25T06:59:01;9.08;;;9.08;;
54328;SDS011;40710;51.120;13.136;2023-04-25T07:01:26;8.89;;;8.89;;
54328;SDS011;40710;51.120;13.136;2023-04-25T07:03:50;9.33;;;9.33;;
54328;SDS011;40710;51.120;13.136;2023-04-25T07:06:15;9.61;;;9.61;;
54328;SDS011;40710;51.120;13.136;2023-04-25T07:08:39;9.58;;;9.53;;
54328;SDS011;40710;51.120;13.136;2023-04-25T07:11:04;8.69;;;8.67;;
54328;SDS011;40710;51.120;13.136;2023-04-25T07:13:28;8.13;;;8.13;;
54328;SDS011;40710;51.120;13.136;2023-04-25T07:15:54;8.45;;;8.44;;
54328;SDS011;40710;51.120;13.136;2023-04-25T07:18:18;9.62;;;9.52;;
54328;SDS011;40710;51.120;13.136;2023-04-25T07:20:43;9.16;;;9.11;;
54328;SDS011;40710;51.120;13.136;2023-04-25T07:23:08;9.19;;;9.07;;
54328;SDS011;40710;51.120;13.136;2023-04-25T07:25:32;9.50;;;9.35;;
54328;SDS011;40710;51.120;13.136;2023-04-25T07:27:57;9.68;;;9.57;;
54328;SDS011;40710;51.120;13.136;2023-04-25T07:30:21;9.51;;;9.51;;
54328;SDS011;40710;51.120;13.136;2023-04-25T07:32:46;9.19;;;9.19;;
54328;SDS011;40710;51.120;13.136;2023-04-25T07:35:11;9.11;;;9.11;;
54328;SDS011;40710;51.120;13.136;2023-04-25T07:37:36;8.92;;;8.92;;
54328;SDS011;40710;51.120;13.136;2023-04-25T07:40:01;8.76;;;8.76;;
54328;SDS011;40710;51.120;13.136;2023-04-25T07:42:27;9.21;;;9.21;;
54328;SDS011;40710;51.120;13.136;2023-04-25T07:44:52;9.71;;;9.71;;
54328;SDS011;40710;51.120;13.136;2023-04-25T07:47:17;10.46;;;10.44;;
54328;SDS011;40710;51.120;13.136;2023-04-25T07:49:43;9.04;;;9.04;;
54328;SDS011;40710;51.120;13.136;2023-04-25T07:52:07;8.74;;;8.74;;
54328;SDS011;40710;51.120;13.136;2023-04-25T07:54:32;8.15;;;8.15;;
54328;SDS011;40710;51.120;13.136;2023-04-25T07:56:56;8.55;;;8.55;;
54328;SDS011;40710;51.120;13.136;2023-04-25T07:59:21;8.65;;;8.60;;
54328;SDS011;40710;51.120;13.136;2023-04-25T08:01:46;9.10;;;9.10;;
54328;SDS011;40710;51.120;13.136;2023-04-25T08:04:10;8.95;;;8.95;;
54328;SDS011;40710;51.120;13.136;2023-04-25T08:06:35;9.40;;;9.40;;
54328;SDS011;40710;51.120;13.136;2023-04-25T08:09:00;9.59;;;9.59;;
54328;SDS011;40710;51.120;13.136;2023-04-25T08:11:24;9.40;;;9.40;;
54328;SDS011;40710;51.120;13.136;2023-04-25T08:13:49;8.99;;;8.99;;
54328;SDS011;40710;51.120;13.136;2023-04-25T08:16:14;8.83;;;8.83;;
54328;SDS011;40710;51.120;13.136;2023-04-25T08:18:38;8.79;;;8.79;;
54328;SDS011;40710;51.120;13.136;2023-04-25T08:21:03;8.42;;;8.42;;
54328;SDS011;40710;51.120;13.136;2023-04-25T08:23:28;8.75;;;8.75;;
54328;SDS011;40710;51.120;13.136;2023-04-25T08:25:52;9.21;;;9.21;;
54328;SDS011;40710;51.120;13.136;2023-04-25T08:28:17;9.88;;;9.88;;
54328;SDS011;40710;51.120;13.136;2023-04-25T08:30:41;13.96;;;13.96;;
54328;SDS011;40710;51.120;13.136;2023-04-25T08:33:06;17.51;;;17.49;;
54328;SDS011;40710;51.120;13.136;2023-04-25T08:35:30;14.28;;;14.27;;
54328;SDS011;40710;51.120;13.136;2023-04-25T08:37:57;14.46;;;14.41;;
54328;SDS011;40710;51.120;13.136;2023-04-25T08:40:22;13.50;;;13.50;;
54328;SDS011;40710;51.120;13.136;2023-04-25T08:42:50;15.35;;;15.32;;
54328;SDS011;40710;51.120;13.136;2023-04-25T08:45:15;14.61;;;14.60;;
54328;SDS011;40710;51.120;13.136;2023-04-25T08:47:40;13.59;;;13.56;;
54328;SDS011;40710;51.120;13.136;2023-04-25T08:50:09;13.44;;;13.44;;
54328;SDS011;40710;51.120;13.136;2023-04-25T08:52:36;12.95;;;12.95;;
54328;SDS011;40710;51.120;13.136;2023-04-25T08:55:07;11.15;;;11.15;;
54328;SDS011;40710;51.120;13.136;2023-04-25T08:57:35;11.63;;;11.63;;
54328;SDS011;40710;51.120;13.136;2023-04-25T09:00:01;11.55;;;11.55;;
54328;SDS011;40710;51.120;13.136;2023-04-25T09:02:27;11.19;;;11.19;;
54328;SDS011;40710;51.120;13.136;2023-04-25T09:04:51;11.07;;;11.07;;
54328;SDS011;40710;51.120;13.136;2023-04-25T09:07:18;11.01;;;11.01;;
54328;SDS011;40710;51.120;13.136;2023-04-25T09:09:45;10.58;;;10.58;;
54328;SDS011;40710;51.120;13.136;2023-04-25T09:12:10;9.86;;;9.86;;
54328;SDS011;40710;51.120;13.136;2023-04-25T09:14:34;9.95;;;9.94;;
54328;SDS011;40710;51.120;13.136;2023-04-25T09:17:00;12.05;;;12.05;;
54328;SDS011;40710;51.120;13.136;2023-04-25T09:19:33;13.23;;;13.20;;
54328;SDS011;40710;51.120;13.136;2023-04-25T09:22:00;14.70;;;14.70;;
54328;SDS011;40710;51.120;13.136;2023-04-25T09:26:59;12.75;;;12.75;;
54328;SDS011;40710;51.120;13.136;2023-04-25T09:29:30;12.05;;;12.05;;
54328;SDS011;40710;51.120;13.136;2023-04-25T09:34:47;11.51;;;11.51;;
54328;SDS011;40710;51.120;13.136;2023-04-25T09:37:19;10.51;;;10.51;;
54328;SDS011;40710;51.120;13.136;2023-04-25T09:39:46;9.67;;;9.67;;
54328;SDS011;40710;51.120;13.136;2023-04-25T09:42:13;9.75;;;9.75;;
54328;SDS011;40710;51.120;13.136;2023-04-25T09:44:43;9.90;;;9.90;;
54328;SDS011;40710;51.120;13.136;2023-04-25T09:47:10;10.71;;;10.70;;
54328;SDS011;40710;51.120;13.136;2023-04-25T09:49:38;12.29;;;12.27;;
54328;SDS011;40710;51.120;13.136;2023-04-25T09:52:05;12.09;;;12.09;;
54328;SDS011;40710;51.120;13.136;2023-04-25T09:54:29;12.62;;;12.62;;
54328;SDS011;40710;51.120;13.136;2023-04-25T09:56:54;12.77;;;12.77;;
54328;SDS011;40710;51.120;13.136;2023-04-25T09:59:21;13.40;;;13.40;;
54328;SDS011;40710;51.120;13.136;2023-04-25T10:01:47;12.41;;;12.41;;
54328;SDS011;40710;51.120;13.136;2023-04-25T10:04:14;13.00;;;13.00;;
54328;SDS011;40710;51.120;13.136;2023-04-25T10:06:44;12.92;;;12.92;;
54328;SDS011;40710;51.120;13.136;2023-04-25T10:09:10;11.01;;;11.01;;
54328;SDS011;40710;51.120;13.136;2023-04-25T10:11:36;8.72;;;8.72;;
54328;SDS011;40710;51.120;13.136;2023-04-25T10:14:03;8.06;;;8.06;;
54328;SDS011;40710;51.120;13.136;2023-04-25T10:16:29;6.35;;;6.32;;
54328;SDS011;40710;51.120;13.136;2023-04-25T10:18:54;6.30;;;6.28;;
54328;SDS011;40710;51.120;13.136;2023-04-25T10:21:19;5.85;;;5.85;;
54328;SDS011;40710;51.120;13.136;2023-04-25T10:23:45;5.75;;;5.75;;
54328;SDS011;40710;51.120;13.136;2023-04-25T10:26:11;5.59;;;5.59;;
54328;SDS011;40710;51.120;13.136;2023-04-25T10:31:20;5.02;;;5.00;;
54328;SDS011;40710;51.120;13.136;2023-04-25T10:33:45;4.76;;;4.76;;
54328;SDS011;40710;51.120;13.136;2023-04-25T10:36:31;4.65;;;4.65;;
54328;SDS011;40710;51.120;13.136;2023-04-25T10:38:56;4.10;;;4.10;;
54328;SDS011;40710;51.120;13.136;2023-04-25T10:41:22;4.04;;;4.03;;
54328;SDS011;40710;51.120;13.136;2023-04-25T10:43:47;13.98;;;13.91;;
54328;SDS011;40710;51.120;13.136;2023-04-25T10:46:18;8.26;;;8.14;;
54328;SDS011;40710;51.120;13.136;2023-04-25T10:48:44;4.13;;;4.07;;
54328;SDS011;40710;51.120;13.136;2023-04-25T10:51:20;3.87;;;3.87;;
54328;SDS011;40710;51.120;13.136;2023-04-25T10:53:46;3.87;;;3.87;;
54328;SDS011;40710;51.120;13.136;2023-04-25T10:56:20;4.28;;;4.28;;
54328;SDS011;40710;51.120;13.136;2023-04-25T10:59:10;4.16;;;4.16;;
54328;SDS011;40710;51.120;13.136;2023-04-25T11:01:44;5.24;;;5.24;;
54328;SDS011;40710;51.120;13.136;2023-04-25T11:04:20;5.93;;;5.92;;
54328;SDS011;40710;51.120;13.136;2023-04-25T11:09:32;5.14;;;5.14;;
54328;SDS011;40710;51.120;13.136;2023-04-25T11:11:57;6.13;;;6.13;;
54328;SDS011;40710;51.120;13.136;2023-04-25T11:14:24;5.83;;;5.83;;
54328;SDS011;40710;51.120;13.136;2023-04-25T11:16:56;5.47;;;5.47;;
54328;SDS011;40710;51.120;13.136;2023-04-25T11:19:22;6.03;;;6.02;;
54328;SDS011;40710;51.120;13.136;2023-04-25T11:21:47;5.83;;;5.83;;
54328;SDS011;40710;51.120;13.136;2023-04-25T11:24:12;5.60;;;5.60;;
54328;SDS011;40710;51.120;13.136;2023-04-25T11:26:37;5.38;;;5.38;;
54328;SDS011;40710;51.120;13.136;2023-04-25T11:29:02;5.57;;;5.57;;
54328;SDS011;40710;51.120;13.136;2023-04-25T11:31:26;5.55;;;5.55;;
54328;SDS011;40710;51.120;13.136;2023-04-25T11:33:53;5.64;;;5.61;;
54328;SDS011;40710;51.120;13.136;2023-04-25T11:36:22;5.94;;;5.92;;
54328;SDS011;40710;51.120;13.136;2023-04-25T11:38:47;6.04;;;6.04;;
54328;SDS011;40710;51.120;13.136;2023-04-25T11:41:11;7.58;;;7.57;;
54328;SDS011;40710;51.120;13.136;2023-04-25T11:43:36;6.65;;;6.65;;
54328;SDS011;40710;51.120;13.136;2023-04-25T11:46:01;6.86;;;6.85;;
54328;SDS011;40710;51.120;13.136;2023-04-25T11:48:36;6.54;;;6.54;;
54328;SDS011;40710;51.120;13.136;2023-04-25T11:51:01;6.95;;;6.95;;
54328;SDS011;40710;51.120;13.136;2023-04-25T11:53:27;6.47;;;6.47;;
54328;SDS011;40710;51.120;13.136;2023-04-25T11:55:52;6.34;;;6.34;;
54328;SDS011;40710;51.120;13.136;2023-04-25T11:58:16;6.82;;;6.82;;
54328;SDS011;40710;51.120;13.136;2023-04-25T12:00:41;7.25;;;7.25;;
54328;SDS011;40710;51.120;13.136;2023-04-25T12:03:08;7.04;;;7.04;;
54328;SDS011;40710;51.120;13.136;2023-04-25T12:05:33;6.90;;;6.90;;
54328;SDS011;40710;51.120;13.136;2023-04-25T12:07:58;7.06;;;7.03;;
54328;SDS011;40710;51.120;13.136;2023-04-25T12:10:36;7.09;;;7.09;;
54328;SDS011;40710;51.120;13.136;2023-04-25T12:13:17;7.19;;;7.19;;
54328;SDS011;40710;51.120;13.136;2023-04-25T12:15:45;7.11;;;7.11;;
54328;SDS011;40710;51.120;13.136;2023-04-25T12:18:10;7.00;;;7.00;;
54328;SDS011;40710;51.120;13.136;2023-04-25T12:20:34;7.33;;;7.32;;
54328;SDS011;40710;51.120;13.136;2023-04-25T12:22:59;7.16;;;7.16;;
54328;SDS011;40710;51.120;13.136;2023-04-25T12:25:34;7.49;;;7.49;;
54328;SDS011;40710;51.120;13.136;2023-04-25T12:33:29;7.84;;;7.84;;
54328;SDS011;40710;51.120;13.136;2023-04-25T12:35:55;8.30;;;8.30;;
54328;SDS011;40710;51.120;13.136;2023-04-25T12:38:27;7.91;;;7.91;;
54328;SDS011;40710;51.120;13.136;2023-04-25T12:40:54;7.55;;;7.55;;
54328;SDS011;40710;51.120;13.136;2023-04-25T12:43:18;7.96;;;7.96;;
54328;SDS011;40710;51.120;13.136;2023-04-25T12:45:49;8.03;;;8.03;;
54328;SDS011;40710;51.120;13.136;2023-04-25T12:48:15;8.27;;;8.26;;
54328;SDS011;40710;51.120;13.136;2023-04-25T12:50:40;8.35;;;8.35;;
54328;SDS011;40710;51.120;13.136;2023-04-25T12:53:05;8.14;;;8.13;;
54328;SDS011;40710;51.120;13.136;2023-04-25T12:55:29;8.79;;;8.74;;
54328;SDS011;40710;51.120;13.136;2023-04-25T12:57:54;8.83;;;8.82;;
54328;SDS011;40710;51.120;13.136;2023-04-25T13:00:18;8.81;;;8.81;;
54328;SDS011;40710;51.120;13.136;2023-04-25T13:02:44;8.92;;;8.92;;
54328;SDS011;40710;51.120;13.136;2023-04-25T13:05:09;9.04;;;9.04;;
54328;SDS011;40710;51.120;13.136;2023-04-25T13:07:33;9.26;;;9.26;;
54328;SDS011;40710;51.120;13.136;2023-04-25T13:09:58;10.85;;;10.84;;
54328;SDS011;40710;51.120;13.136;2023-04-25T13:12:23;8.92;;;8.90;;
54328;SDS011;40710;51.120;13.136;2023-04-25T13:14:47;7.76;;;7.73;;
54328;SDS011;40710;51.120;13.136;2023-04-25T13:17:12;7.63;;;7.62;;
54328;SDS011;40710;51.120;13.136;2023-04-25T13:19:36;7.41;;;7.39;;
54328;SDS011;40710;51.120;13.136;2023-04-25T13:22:02;7.42;;;7.37;;
54328;SDS011;40710;51.120;13.136;2023-04-25T13:24:28;7.37;;;7.34;;
54328;SDS011;40710;51.120;13.136;2023-04-25T13:26:52;7.69;;;7.69;;
54328;SDS011;40710;51.120;13.136;2023-04-25T13:29:17;7.59;;;7.59;;
54328;SDS011;40710;51.120;13.136;2023-04-25T13:31:41;7.55;;;7.53;;
54328;SDS011;40710;51.120;13.136;2023-04-25T13:34:06;7.93;;;7.90;;
54328;SDS011;40710;51.120;13.136;2023-04-25T13:36:31;7.54;;;7.51;;
54328;SDS011;40710;51.120;13.136;2023-04-25T13:38:55;7.05;;;7.05;;
54328;SDS011;40710;51.120;13.136;2023-04-25T13:41:20;6.88;;;6.88;;
54328;SDS011;40710;51.120;13.136;2023-04-25T13:43:45;7.72;;;7.70;;
54328;SDS011;40710;51.120;13.136;2023-04-25T13:46:11;8.98;;;8.68;;
54328;SDS011;40710;51.120;13.136;2023-04-25T13:48:37;7.57;;;7.43;;
54328;SDS011;40710;51.120;13.136;2023-04-25T13:51:01;6.62;;;6.62;;
54328;SDS011;40710;51.120;13.136;2023-04-25T13:53:26;6.45;;;6.45;;
54328;SDS011;40710;51.120;13.136;2023-04-25T13:55:50;6.36;;;6.36;;
54328;SDS011;40710;51.120;13.136;2023-04-25T13:58:15;6.69;;;6.69;;
54328;SDS011;40710;51.120;13.136;2023-04-25T14:00:39;6.98;;;6.98;;
54328;SDS011;40710;51.120;13.136;2023-04-25T14:03:06;7.31;;;7.28;;
54328;SDS011;40710;51.120;13.136;2023-04-25T14:05:34;7.07;;;7.06;;
54328;SDS011;40710;51.120;13.136;2023-04-25T14:08:02;6.75;;;6.74;;
54328;SDS011;40710;51.120;13.136;2023-04-25T14:10:26;6.17;;;6.16;;
54328;SDS011;40710;51.120;13.136;2023-04-25T14:12:51;5.76;;;5.72;;
54328;SDS011;40710;51.120;13.136;2023-04-25T14:15:15;5.86;;;5.82;;
54328;SDS011;40710;51.120;13.136;2023-04-25T14:17:40;5.44;;;5.34;;
54328;SDS011;40710;51.120;13.136;2023-04-25T14:20:04;5.25;;;5.23;;
54328;SDS011;40710;51.120;13.136;2023-04-25T14:22:30;5.12;;;5.12;;
54328;SDS011;40710;51.120;13.136;2023-04-25T14:24:54;5.07;;;5.05;;
54328;SDS011;40710;51.120;13.136;2023-04-25T14:27:19;4.65;;;4.60;;
54328;SDS011;40710;51.120;13.136;2023-04-25T14:29:43;4.81;;;4.77;;
54328;SDS011;40710;51.120;13.136;2023-04-25T14:32:08;4.49;;;4.44;;